createdAt,value
2019-04-21T00:01:37.113Z,18.01
2019-04-21T00:04:11.344Z,18.00
2019-04-21T00:06:55.277Z,17.86
2019-04-21T00:11:56.953Z,18.00
2019-04-21T00:14:22.504Z,17.84
2019-04-21T00:16:50.401Z,17.78
2019-04-21T00:19:19.818Z,18.00
2019-04-21T00:21:51.010Z,18.16
2019-04-21T00:24:28.816Z,18.05
2019-04-21T00:27:05.241Z,18.20
2019-04-21T00:29:45.697Z,18.03
2019-04-21T00:32:05.247Z,17.90
2019-04-21T00:34:21.759Z,17.70
2019-04-21T00:37:03.191Z,17.43
2019-04-21T00:39:58.750Z,17.33
2019-04-21T00:42:16.777Z,17.25
2019-04-21T00:44:38.064Z,17.43
2019-04-21T00:47:13.976Z,17.24
2019-04-21T00:49:53.996Z,17.00
2019-04-21T00:52:47.539Z,17.15
2019-04-21T00:55:18.142Z,17.06
2019-04-21T00:57:39.545Z,16.77
2019-04-21T01:00:07.373Z,16.68
2019-04-21T01:02:46.887Z,16.62
2019-04-21T01:05:15.224Z,16.79
2019-04-21T01:07:41.053Z,16.91
2019-04-21T01:10:06.557Z,16.92
2019-04-21T01:12:43.375Z,16.78
2019-04-21T01:15:25.039Z,16.63
2019-04-21T01:17:46.019Z,16.62
2019-04-21T01:20:10.261Z,16.71
2019-04-21T01:22:27.779Z,16.46
2019-04-21T01:25:08.096Z,16.43
2019-04-21T01:27:52.071Z,16.34
2019-04-21T01:30:22.532Z,16.25
2019-04-21T01:32:53.215Z,16.29
2019-04-21T01:35:20.879Z,16.48
2019-04-21T01:37:57.770Z,16.33
2019-04-21T01:40:36.163Z,16.20
2019-04-21T01:42:58.344Z,16.30
2019-04-21T01:45:26.493Z,16.57
2019-04-21T01:48:03.606Z,16.22
2019-04-21T01:50:28.992Z,16.15
2019-04-21T01:53:19.746Z,16.28
2019-04-21T01:55:48.529Z,16.17
2019-04-21T01:58:19.445Z,16.08
2019-04-21T02:00:54.381Z,16.20
2019-04-21T02:03:48.369Z,16.15
2019-04-21T02:06:04.438Z,15.93
2019-04-21T02:08:32.427Z,15.72
2019-04-21T02:11:08.053Z,15.69
2019-04-21T02:13:43.882Z,15.80
2019-04-21T02:16:06.539Z,15.67
2019-04-21T02:18:40.740Z,15.79
2019-04-21T02:20:59.268Z,15.76
2019-04-21T02:24:46.894Z,15.65
2019-04-21T02:27:17.361Z,15.78
2019-04-21T02:29:41.147Z,15.72
2019-04-21T02:32:28.704Z,15.52
2019-04-21T02:35:13.660Z,15.49
2019-04-21T02:42:26.448Z,15.74
2019-04-21T02:45:00.390Z,15.63
2019-04-21T02:50:21.253Z,15.62
2019-04-21T02:52:37.818Z,15.34
2019-04-21T02:55:03.961Z,15.25
2019-04-21T02:57:43.838Z,15.17
2019-04-21T03:05:48.819Z,15.09
2019-04-21T03:08:34.357Z,15.03
2019-04-21T03:10:43.390Z,15.04
2019-04-21T03:13:21.872Z,15.30
2019-04-21T03:20:50.992Z,15.83
2019-04-21T03:23:28.041Z,15.91
2019-04-21T03:25:52.035Z,16.01
2019-04-21T03:36:33.287Z,15.29
2019-04-21T03:38:39.087Z,15.24
2019-04-21T03:40:57.695Z,15.21
2019-04-21T03:45:58.182Z,15.28
2019-04-21T03:48:35.570Z,15.56
2019-04-21T03:51:13.827Z,15.75
2019-04-21T03:53:40.041Z,15.39
2019-04-21T03:56:23.280Z,15.57
2019-04-21T03:58:54.641Z,15.43
2019-04-21T04:04:12.188Z,15.15
2019-04-21T04:06:25.966Z,15.24
2019-04-21T04:09:10.614Z,15.33
2019-04-21T04:11:38.091Z,15.35
2019-04-21T04:16:37.981Z,15.17
2019-04-21T04:21:37.211Z,14.83
2019-04-21T04:27:02.376Z,14.49
2019-04-21T04:29:22.531Z,14.35
2019-04-21T04:34:22.834Z,14.37
2019-04-21T04:42:12.617Z,14.20
2019-04-21T04:44:46.492Z,14.01
2019-04-21T04:47:12.302Z,14.03
2019-04-21T04:57:27.448Z,14.04
2019-04-21T04:59:49.591Z,13.89
2019-04-21T05:02:33.640Z,13.76
2019-04-21T05:09:59.840Z,13.94
2019-04-21T05:12:19.079Z,14.39
2019-04-21T05:14:53.403Z,14.34
2019-04-21T05:17:30.949Z,14.24
2019-04-21T05:24:44.054Z,14.20
2019-04-21T05:27:29.524Z,14.29
2019-04-21T05:30:16.992Z,14.22
2019-04-21T05:32:57.572Z,14.32
2019-04-21T05:35:23.214Z,14.36
2019-04-21T05:38:01.838Z,14.38
2019-04-21T05:40:24.818Z,14.32
2019-04-21T05:43:04.463Z,14.40
2019-04-21T05:45:34.894Z,14.37
2019-04-21T05:48:21.084Z,14.45
2019-04-21T05:50:38.061Z,14.48
2019-04-21T05:53:08.243Z,14.53
2019-04-21T05:58:14.497Z,14.69
2019-04-21T06:03:36.923Z,14.75
2019-04-21T06:06:08.292Z,15.23
2019-04-21T06:08:30.834Z,15.59
2019-04-21T06:11:07.279Z,15.80
2019-04-21T06:13:45.962Z,15.73
2019-04-21T06:16:09.337Z,15.85
2019-04-21T06:21:11.150Z,16.04
2019-04-21T06:23:42.230Z,16.19
2019-04-21T06:26:27.018Z,16.40
2019-04-21T06:28:45.376Z,16.10
2019-04-21T06:31:26.939Z,16.35
2019-04-21T06:51:30.717Z,17.04
2019-04-21T06:56:41.229Z,17.04
2019-04-21T06:59:06.692Z,17.07
2019-04-21T07:01:42.267Z,17.27
2019-04-21T07:04:18.471Z,17.30
2019-04-21T07:06:48.072Z,17.34
2019-04-21T07:11:36.791Z,17.52
2019-04-21T07:14:27.127Z,17.53
2019-04-21T07:16:52.845Z,17.45
2019-04-21T07:19:21.015Z,17.51
2019-04-21T07:22:03.191Z,17.67
2019-04-21T07:24:30.467Z,17.79
2019-04-21T07:29:32.218Z,17.98
2019-04-21T07:31:59.144Z,18.09
2019-04-21T07:34:27.239Z,18.18
2019-04-21T07:36:57.986Z,18.24
2019-04-21T07:39:29.254Z,18.30
2019-04-21T07:41:54.046Z,18.18
2019-04-21T07:44:28.549Z,18.38
2019-04-21T07:46:58.556Z,18.45
2019-04-21T07:49:39.952Z,18.55
2019-04-21T07:52:28.590Z,18.57
2019-04-21T07:55:12.406Z,18.62
2019-04-21T07:57:28.117Z,18.83
2019-04-21T08:00:14.928Z,18.88
2019-04-21T08:02:34.278Z,18.92
2019-04-21T08:05:20.559Z,18.90
2019-04-21T08:07:49.361Z,18.98
2019-04-21T08:10:03.197Z,19.04
2019-04-21T08:12:37.022Z,19.16
2019-04-21T08:15:18.161Z,19.21
2019-04-21T08:17:41.516Z,19.24
2019-04-21T08:20:13.831Z,19.31
2019-04-21T08:30:28.899Z,19.65
2019-04-21T08:37:55.217Z,19.93
2019-04-21T08:40:43.683Z,20.01
2019-04-21T08:43:02.808Z,20.08
2019-04-21T08:45:35.906Z,20.08
2019-04-21T08:48:04.139Z,20.10
2019-04-21T08:50:37.271Z,20.26
2019-04-21T08:53:07.966Z,20.23
2019-04-21T08:55:51.902Z,20.37
2019-04-21T08:58:22.675Z,20.45
2019-04-21T09:01:00.889Z,20.52
2019-04-21T09:03:43.265Z,20.62
2019-04-21T09:06:23.553Z,20.63
2019-04-21T09:08:46.024Z,20.73
2019-04-21T09:11:17.243Z,20.73
2019-04-21T09:13:47.714Z,20.85
2019-04-21T09:16:18.794Z,20.88
2019-04-21T09:18:48.779Z,20.92
2019-04-21T09:21:28.539Z,21.08
2019-04-21T09:24:00.597Z,21.21
2019-04-21T09:26:27.911Z,21.36
2019-04-21T09:28:54.017Z,21.37
2019-04-21T09:31:12.117Z,21.41
2019-04-21T09:33:47.130Z,21.54
2019-04-21T09:36:17.943Z,21.63
2019-04-21T09:38:50.733Z,21.74
2019-04-21T09:41:18.959Z,21.74
2019-04-21T09:43:52.203Z,21.82
2019-04-21T09:46:20.759Z,21.79
2019-04-21T09:48:58.249Z,21.87
2019-04-21T09:51:21.933Z,22.04
2019-04-21T09:53:58.337Z,22.18
2019-04-21T09:56:31.431Z,22.27
2019-04-21T09:59:05.359Z,22.25
2019-04-21T10:01:38.945Z,22.09
2019-04-21T10:04:00.221Z,22.28
2019-04-21T10:06:28.528Z,22.48
2019-04-21T10:09:03.989Z,22.58
2019-04-21T10:11:29.496Z,22.72
2019-04-21T10:13:59.126Z,22.94
2019-04-21T10:16:34.253Z,23.00
2019-04-21T10:19:04.653Z,22.97
2019-04-21T10:21:34.326Z,23.13
2019-04-21T10:24:04.203Z,23.17
2019-04-21T10:26:33.909Z,23.20
2019-04-21T10:29:09.384Z,23.40
2019-04-21T10:31:34.901Z,23.47
2019-04-21T10:34:05.314Z,23.57
2019-04-21T10:36:35.159Z,23.48
2019-04-21T10:39:06.172Z,23.51
2019-04-21T10:41:35.728Z,23.71
2019-04-21T10:44:05.300Z,23.57
2019-04-21T10:46:35.051Z,23.86
2019-04-21T10:49:04.675Z,23.92
2019-04-21T10:51:35.164Z,24.12
2019-04-21T10:54:06.270Z,24.21
2019-04-21T10:56:42.389Z,24.18
2019-04-21T10:59:10.050Z,24.33
2019-04-21T11:01:41.037Z,24.31
2019-04-21T11:04:22.783Z,24.19
2019-04-21T11:06:48.569Z,24.04
2019-04-21T11:09:20.083Z,24.37
2019-04-21T11:11:51.673Z,24.50
2019-04-21T11:14:21.413Z,24.56
2019-04-21T11:16:52.908Z,24.70
2019-04-21T11:19:22.396Z,24.75
2019-04-21T11:21:52.577Z,24.89
2019-04-21T11:24:23.017Z,24.88
2019-04-21T11:26:53.796Z,25.02
2019-04-21T11:29:23.494Z,25.16
2019-04-21T11:31:53.069Z,25.22
2019-04-21T11:34:23.069Z,25.22
2019-04-21T11:36:52.686Z,25.29
2019-04-21T11:39:35.069Z,25.10
2019-04-21T11:41:55.181Z,24.98
2019-04-21T11:44:24.924Z,25.14
2019-04-21T11:46:54.562Z,25.37
2019-04-21T11:49:27.508Z,25.19
2019-04-21T11:51:56.500Z,25.39
2019-04-21T11:54:26.736Z,25.45
2019-04-21T11:56:56.997Z,25.66
2019-04-21T11:59:27.907Z,25.60
2019-04-21T12:01:57.551Z,25.41
2019-04-21T12:04:27.635Z,25.57
2019-04-21T12:06:57.850Z,25.54
2019-04-21T12:09:27.598Z,25.53
2019-04-21T12:11:57.223Z,25.72
2019-04-21T12:14:28.124Z,25.86
2019-04-21T12:16:59.212Z,25.78
2019-04-21T12:19:28.903Z,25.98
2019-04-21T12:22:08.063Z,25.88
2019-04-21T12:24:32.965Z,26.08
2019-04-21T12:27:05.631Z,26.17
2019-04-21T12:29:37.815Z,26.22
2019-04-21T12:32:18.014Z,26.23
2019-04-21T12:34:50.507Z,26.18
2019-04-21T12:37:19.237Z,26.20
2019-04-21T12:39:50.472Z,26.42
2019-04-21T12:42:20.778Z,26.46
2019-04-21T12:44:51.640Z,26.55
2019-04-21T12:47:21.771Z,26.70
2019-04-21T12:49:54.041Z,26.84
2019-04-21T12:52:24.035Z,26.68
2019-04-21T12:54:53.605Z,26.82
2019-04-21T12:57:23.652Z,26.98
2019-04-21T12:59:53.204Z,27.03
2019-04-21T13:02:25.423Z,27.01
2019-04-21T13:04:55.871Z,27.25
2019-04-21T13:07:25.840Z,27.44
2019-04-21T13:09:55.451Z,27.44
2019-04-21T13:12:25.194Z,27.54
2019-04-21T13:14:57.411Z,27.93
2019-04-21T13:17:26.101Z,28.02
2019-04-21T13:19:56.906Z,28.43
2019-04-21T13:22:27.883Z,28.63
2019-04-21T13:24:57.993Z,29.02
2019-04-21T13:27:28.852Z,29.43
2019-04-21T13:29:59.971Z,29.67
2019-04-21T13:32:31.077Z,29.71
2019-04-21T13:35:01.206Z,29.48
2019-04-21T13:37:30.861Z,30.00
2019-04-21T13:40:24.913Z,30.23
2019-04-21T13:42:40.258Z,30.45
2019-04-21T13:45:08.214Z,30.57
2019-04-21T13:47:38.686Z,30.77
2019-04-21T13:50:09.382Z,31.91
2019-04-21T13:52:38.963Z,32.37
2019-04-21T13:55:11.823Z,36.70
2019-04-21T13:57:41.377Z,39.57
2019-04-21T14:00:13.072Z,42.76
2019-04-21T14:02:42.868Z,44.41
2019-04-21T14:05:15.500Z,46.13
2019-04-21T14:07:44.313Z,47.38
2019-04-21T14:10:16.082Z,46.23
2019-04-21T14:12:46.774Z,48.10
2019-04-21T14:15:18.090Z,48.76
2019-04-21T14:17:48.918Z,50.57
2019-04-21T14:20:19.515Z,50.68
2019-04-21T14:22:49.693Z,51.00
2019-04-21T14:25:19.701Z,48.79
2019-04-21T14:27:51.675Z,50.49
2019-04-21T14:30:22.737Z,50.75
2019-04-21T14:32:52.322Z,52.71
2019-04-21T14:35:22.896Z,52.23
2019-04-21T14:37:52.946Z,51.55
2019-04-21T14:40:27.270Z,51.11
2019-04-21T14:42:54.115Z,51.97
2019-04-21T14:45:28.263Z,52.32
2019-04-21T14:48:00.856Z,48.81
2019-04-21T14:50:42.158Z,52.23
2019-04-21T14:53:16.258Z,53.29
2019-04-21T14:55:46.398Z,53.56
2019-04-21T14:58:17.224Z,52.20
2019-04-21T15:01:04.160Z,50.66
2019-04-21T15:03:34.198Z,50.92
2019-04-21T15:06:05.422Z,51.59
2019-04-21T15:08:35.402Z,50.91
2019-04-21T15:11:05.348Z,50.83
2019-04-21T15:13:35.490Z,51.81
2019-04-21T15:16:06.763Z,52.08
2019-04-21T15:18:36.834Z,52.63
2019-04-21T15:21:07.798Z,51.72
2019-04-21T15:23:38.198Z,53.60
2019-04-21T15:26:08.271Z,50.99
2019-04-21T15:28:40.519Z,52.34
2019-04-21T15:31:15.173Z,51.34
2019-04-21T15:33:41.368Z,49.66
2019-04-21T15:36:11.282Z,51.26
2019-04-21T15:38:40.910Z,50.59
2019-04-21T15:41:10.963Z,51.35
2019-04-21T15:43:42.608Z,51.76
2019-04-21T15:46:13.157Z,51.11
2019-04-21T15:48:44.786Z,51.89
2019-04-21T15:51:15.829Z,52.41
2019-04-21T15:53:47.879Z,50.70
2019-04-21T15:56:20.579Z,51.32
2019-04-21T15:58:52.671Z,50.99
2019-04-21T16:01:36.609Z,48.38
2019-04-21T16:04:07.886Z,43.99
2019-04-21T16:06:39.384Z,40.90
2019-04-21T16:09:16.176Z,39.08
2019-04-21T16:11:42.141Z,37.30
2019-04-21T16:14:11.836Z,36.48
2019-04-21T16:16:41.400Z,36.05
2019-04-21T16:19:12.330Z,33.76
2019-04-21T16:21:44.394Z,34.26
2019-04-21T16:24:14.247Z,33.87
2019-04-21T16:26:44.602Z,33.26
2019-04-21T16:29:15.340Z,32.91
2019-04-21T16:31:45.132Z,32.44
2019-04-21T16:34:15.787Z,32.10
2019-04-21T16:36:45.699Z,31.79
2019-04-21T16:39:15.652Z,31.50
2019-04-21T16:41:46.505Z,31.10
2019-04-21T16:44:16.837Z,30.80
2019-04-21T16:46:47.507Z,30.94
2019-04-21T16:49:17.862Z,30.49
2019-04-21T16:51:50.021Z,30.28
2019-04-21T16:54:21.987Z,30.03
2019-04-21T16:56:55.787Z,29.92
2019-04-21T16:59:28.577Z,29.94
2019-04-21T17:01:58.777Z,29.77
2019-04-21T17:04:28.721Z,29.48
2019-04-21T17:06:58.916Z,29.08
2019-04-21T17:09:28.771Z,28.93
2019-04-21T17:12:03.372Z,28.57
2019-04-21T17:14:47.734Z,28.60
2019-04-21T17:17:29.279Z,28.33
2019-04-21T17:19:38.153Z,28.16
2019-04-21T17:22:03.975Z,28.01
2019-04-21T17:24:34.713Z,27.87
2019-04-21T17:27:05.058Z,27.69
2019-04-21T17:29:34.768Z,27.63
2019-04-21T17:32:07.696Z,27.34
2019-04-21T17:34:37.400Z,27.01
2019-04-21T17:37:08.720Z,27.16
2019-04-21T17:39:38.751Z,27.02
2019-04-21T17:42:19.738Z,26.74
2019-04-21T17:44:39.764Z,26.76
2019-04-21T17:47:20.102Z,26.70
2019-04-21T17:49:41.097Z,26.64
2019-04-21T17:52:23.141Z,26.54
2019-04-21T17:55:09.245Z,26.49
2019-04-21T17:57:52.077Z,26.34
2019-04-21T18:00:43.394Z,26.34
2019-04-21T18:02:54.765Z,26.23
2019-04-21T18:05:27.512Z,26.11
2019-04-21T18:07:58.629Z,26.05
2019-04-21T18:10:33.485Z,25.97
2019-04-21T18:12:52.114Z,25.76
2019-04-21T18:15:36.362Z,25.64
2019-04-21T18:17:47.865Z,25.67
2019-04-21T18:20:19.664Z,25.40
2019-04-21T18:22:59.062Z,25.18
2019-04-21T18:25:42.285Z,25.26
2019-04-21T18:28:02.970Z,25.23
2019-04-21T18:30:54.223Z,25.21
2019-04-21T18:33:29.970Z,25.11
2019-04-21T18:36:02.889Z,25.01
2019-04-21T18:39:10.371Z,24.97
2019-04-21T18:41:28.716Z,24.89
2019-04-21T18:44:21.337Z,24.81
2019-04-21T18:46:55.133Z,24.79
2019-04-21T18:49:19.447Z,24.72
2019-04-21T18:52:20.779Z,24.56
2019-04-21T18:54:59.906Z,24.47
2019-04-21T18:57:26.468Z,24.38
2019-04-21T18:59:47.715Z,24.36
2019-04-21T19:02:20.746Z,24.21
2019-04-21T19:04:50.170Z,24.10
2019-04-21T19:07:37.867Z,24.02
2019-04-21T19:10:22.247Z,23.88
2019-04-21T19:13:17.456Z,23.89
2019-04-21T19:15:04.388Z,23.80
2019-04-21T19:18:14.901Z,23.71
2019-04-21T19:20:22.309Z,23.61
2019-04-21T19:22:47.496Z,23.39
2019-04-21T19:25:34.928Z,23.27
2019-04-21T19:27:49.040Z,23.20
2019-04-21T19:30:33.216Z,23.22
2019-04-21T19:32:51.079Z,23.12
2019-04-21T19:35:11.668Z,22.93
2019-04-21T19:37:49.757Z,22.77
2019-04-21T19:40:31.700Z,22.72
2019-04-21T19:42:55.781Z,22.76
2019-04-21T19:45:33.155Z,22.69
2019-04-21T19:48:08.057Z,22.47
2019-04-21T19:50:43.946Z,22.38
2019-04-21T19:53:00.917Z,22.37
2019-04-21T19:55:22.257Z,22.35
2019-04-21T19:57:52.717Z,22.03
2019-04-21T20:00:22.602Z,21.65
2019-04-21T20:02:54.232Z,21.58
2019-04-21T20:05:34.975Z,21.89
2019-04-21T20:08:11.399Z,21.87
2019-04-21T20:10:51.834Z,21.89
2019-04-21T20:13:25.953Z,21.79
2019-04-21T20:15:51.028Z,21.74
2019-04-21T20:18:15.305Z,21.66
2019-04-21T20:20:35.144Z,21.61
2019-04-21T20:23:08.899Z,21.60
2019-04-21T20:25:43.701Z,21.56
2019-04-21T20:28:15.681Z,21.50
2019-04-21T20:30:59.595Z,21.23
2019-04-21T20:36:08.156Z,21.17
2019-04-21T20:38:24.477Z,21.11
2019-04-21T20:40:56.934Z,21.12
2019-04-21T20:43:38.131Z,20.90
2019-04-21T20:46:06.114Z,20.94
2019-04-21T20:48:34.420Z,20.91
2019-04-21T20:51:09.239Z,20.87
2019-04-21T20:53:34.257Z,20.78
2019-04-21T20:56:02.366Z,20.77
2019-04-21T20:58:40.771Z,20.71
2019-04-21T21:01:25.745Z,20.69
2019-04-21T21:03:46.034Z,20.58
2019-04-21T21:06:09.951Z,20.59
2019-04-21T21:08:52.946Z,20.53
2019-04-21T21:11:22.007Z,20.54
2019-04-21T21:13:53.688Z,20.49
2019-04-21T21:19:08.101Z,20.41
2019-04-21T21:21:20.619Z,20.23
2019-04-21T21:23:56.303Z,20.33
2019-04-21T21:26:43.863Z,20.29
2019-04-21T21:28:52.009Z,20.21
2019-04-21T21:31:30.800Z,20.21
2019-04-21T21:34:11.811Z,20.17
2019-04-21T21:36:31.844Z,20.18
2019-04-21T21:39:10.057Z,20.08
2019-04-21T21:41:26.561Z,20.08
2019-04-21T21:44:00.551Z,20.01
2019-04-21T21:46:36.874Z,20.05
2019-04-21T21:49:01.931Z,19.98
2019-04-21T21:51:42.254Z,19.94
2019-04-21T21:53:54.897Z,19.87
2019-04-21T21:56:26.814Z,19.86
2019-04-21T21:58:57.131Z,19.90
2019-04-21T22:01:31.864Z,19.78
2019-04-21T22:04:08.809Z,19.82
2019-04-21T22:06:39.654Z,19.76
2019-04-21T22:09:00.981Z,19.63
2019-04-21T22:11:32.091Z,19.56
2019-04-21T22:14:06.244Z,19.57
2019-04-21T22:16:46.610Z,19.51
2019-04-21T22:19:21.879Z,19.28
2019-04-21T22:21:53.620Z,19.29
2019-04-21T22:24:21.610Z,19.29
2019-04-21T22:26:39.029Z,19.24
2019-04-21T22:29:09.697Z,19.18
2019-04-21T22:31:41.583Z,19.15
2019-04-21T22:34:13.171Z,19.14
2019-04-21T22:36:48.737Z,19.16
2019-04-21T22:39:38.405Z,19.18
2019-04-21T22:41:48.425Z,19.17
2019-04-21T22:44:20.705Z,19.05
2019-04-21T22:47:00.035Z,18.94
2019-04-21T22:49:23.593Z,18.98
2019-04-21T22:51:53.965Z,18.95
2019-04-21T22:54:32.626Z,18.96
2019-04-21T22:57:05.174Z,18.85
2019-04-21T22:59:30.554Z,18.84
2019-04-21T23:02:01.508Z,18.87
2019-04-21T23:04:35.572Z,18.81
2019-04-21T23:07:07.854Z,18.50
2019-04-21T23:09:35.004Z,18.58
2019-04-21T23:12:05.082Z,18.62
2019-04-21T23:14:46.746Z,18.51
2019-04-21T23:17:29.902Z,18.58
2019-04-21T23:19:59.916Z,18.65
2019-04-21T23:22:27.607Z,18.56
2019-04-21T23:25:03.709Z,17.67
2019-04-21T23:27:23.837Z,17.89
2019-04-21T23:30:08.119Z,18.07
2019-04-21T23:32:27.842Z,18.14
2019-04-21T23:34:47.079Z,17.92
2019-04-21T23:37:21.714Z,17.99
2019-04-21T23:39:52.214Z,18.09
2019-04-21T23:42:28.622Z,18.12
2019-04-21T23:44:55.203Z,18.00
2019-04-21T23:47:34.552Z,17.86
2019-04-21T23:50:02.715Z,17.77
2019-04-21T23:52:25.606Z,17.76
2019-04-21T23:54:55.680Z,17.57
2019-04-21T23:57:32.566Z,17.65
2019-04-21T23:59:58.849Z,17.67
